Date,TemperatureHighF,TemperatureAvgF,TemperatureLowF,DewpointHighF,DewpointAvgF,DewpointLowF,HumidityHigh,HumidityAvg,HumidityLow,PressureMaxIn,PressureMinIn,WindSpeedMaxMPH,WindSpeedAvgMPH,GustSpeedMaxMPH,PrecipitationSumIn
2013-1-1,33.0,23.3,14.5,32.0,19.7,11.6,96,86,74,30.31,30.13,12,6,16,0.00
2013-1-2,22.7,17.3,0.0,15.9,12.9,9.9,88,82,72,30.33,30.28,5,1,8,0.01
2013-1-3,36.7,28.3,17.6,28.7,22.3,14.0,89,78,71,30.44,30.27,8,4,14,0.02
2013-1-4,36.2,29.8,20.7,27.1,24.5,18.6,94,81,67,30.49,30.37,9,3,15,0.00
2013-1-5,42.0,35.5,27.8,33.2,28.3,21.9,84,75,63,30.39,30.16,10,6,18,0.00
2013-1-6,38.6,32.2,21.6,33.9,27.2,19.5,93,82,73,30.45,30.11,9,4,19,0.00
2013-1-7,40.9,30.2,22.4,28.6,25.4,20.3,93,83,59,30.48,30.23,9,3,15,0.00
2013-1-8,48.3,39.6,29.6,38.4,31.4,26.3,88,73,51,30.28,30.19,11,5,15,0.00
2013-1-9,55.7,46.5,38.6,45.3,39.5,33.6,96,78,51,30.52,30.22,12,3,23,0.08
2013-1-10,60.1,46.7,39.2,59.0,42.6,33.0,99,86,70,30.50,29.83,12,6,20,0.05
2013-1-11,60.9,56.6,52.7,59.4,51.7,48.7,96,84,71,29.93,29.82,16,9,26,0.04
2013-1-12,61.8,52.2,35.7,55.1,48.5,33.6,95,88,75,29.98,29.79,17,8,26,0.01
2013-1-13,32.2,26.2,21.5,30.3,22.5,15.6,93,86,76,30.40,30.01,13,8,21,0.16
2013-1-14,26.6,22.0,19.0,20.0,16.7,13.7,89,80,74,30.55,30.40,10,6,14,0.00
2013-1-15,29.9,24.6,20.8,25.4,21.3,18.3,90,87,81,30.47,30.15,8,5,10,0.00
2013-1-16,38.9,31.2,22.4,27.5,24.5,20.4,93,77,53,30.19,30.07,8,2,14,0.00
2013-1-17,39.2,34.0,24.8,33.9,28.1,21.6,88,79,64,30.53,30.17,15,5,22,0.00
2013-1-18,45.6,34.8,22.9,32.9,26.8,20.9,92,74,55,30.56,30.20,18,8,26,0.00
2013-1-19,56.2,46.4,39.3,40.2,36.0,31.4,78,67,54,30.22,29.95,18,11,31,0.00
2013-1-20,45.4,30.9,25.3,35.6,20.0,13.2,82,64,48,30.37,30.11,17,7,26,0.00
2013-1-21,25.3,22.6,20.3,17.6,15.7,9.4,78,74,62,30.36,30.31,9,6,16,0.00
2013-1-24,26.7,25.2,0.0,13.0,11.5,9.5,59,55,48,30.49,30.35,8,3,14,0.00
2013-1-25,38.9,31.3,26.1,26.0,18.6,9.2,76,59,48,30.36,30.16,8,3,15,0.00
2013-1-26,35.0,30.0,21.4,24.1,19.4,13.8,74,65,51,30.46,30.26,8,2,11,0.00
2013-1-27,48.6,35.8,28.6,45.8,31.7,20.0,95,85,70,30.40,30.05,15,7,24,0.19
2013-1-28,61.0,56.6,48.1,59.1,54.7,45.8,95,93,90,30.06,29.93,18,11,25,0.07
2013-1-29,67.3,63.5,56.7,60.4,59.3,54.3,95,86,75,29.93,29.37,22,15,41,0.50
2013-1-30,56.5,39.5,29.0,54.2,34.6,20.4,96,83,70,29.90,29.38,15,10,38,1.38
2013-1-31,31.4,25.7,12.8,26.4,17.7,3.1,90,71,64,30.40,29.90,15,9,27,0.00